createdAt,value
2023-05-16T00:00:22.616Z,57.17
2023-05-16T00:01:21.621Z,57.23
2023-05-16T00:02:22.797Z,57.21
2023-05-16T00:03:22.735Z,57.19
2023-05-16T00:04:21.751Z,57.20
2023-05-16T00:05:22.717Z,57.19
2023-05-16T00:06:21.781Z,57.18
2023-05-16T00:07:21.785Z,57.20
2023-05-16T00:08:22.818Z,57.17
2023-05-16T00:09:21.841Z,57.19
2023-05-16T00:10:21.879Z,57.19
2023-05-16T00:11:22.894Z,57.17
2023-05-16T00:12:21.946Z,57.16
2023-05-16T00:13:22.956Z,57.17
2023-05-16T00:14:23.003Z,57.17
2023-05-16T00:15:22.028Z,57.16
2023-05-16T00:16:23.072Z,57.18
2023-05-16T00:17:23.109Z,57.16
2023-05-16T00:18:22.117Z,57.16
2023-05-16T00:19:22.327Z,57.18
2023-05-16T00:20:23.205Z,57.16
2023-05-16T00:21:23.616Z,57.14
2023-05-16T00:22:23.192Z,57.15
2023-05-16T00:23:22.195Z,57.14
2023-05-16T00:24:22.239Z,57.13
2023-05-16T00:25:23.269Z,57.15
2023-05-16T00:26:22.311Z,57.17
2023-05-16T00:27:22.316Z,57.14
2023-05-16T00:28:23.357Z,57.14
2023-05-16T00:29:22.374Z,57.14
2023-05-16T00:30:23.466Z,57.16
2023-05-16T00:31:23.450Z,57.16
2023-05-16T00:32:22.540Z,57.16
2023-05-16T00:33:23.456Z,57.13
2023-05-16T00:34:23.533Z,57.11
2023-05-16T00:35:23.535Z,57.12
2023-05-16T00:36:24.023Z,57.12
2023-05-16T00:37:23.591Z,57.14
2023-05-16T00:38:22.630Z,57.13
2023-05-16T00:39:23.610Z,57.12
2023-05-16T00:40:22.627Z,57.12
2023-05-16T00:41:23.625Z,57.12
2023-05-16T00:42:22.665Z,57.10
2023-05-16T00:43:22.654Z,57.10
2023-05-16T00:44:23.705Z,57.13
2023-05-16T00:45:23.738Z,57.08
2023-05-16T00:46:23.897Z,57.12
2023-05-16T00:47:23.824Z,57.09
2023-05-16T00:48:23.854Z,57.09
2023-05-16T00:49:22.850Z,57.08
2023-05-16T00:50:22.879Z,57.09
2023-05-16T00:51:23.936Z,57.10
2023-05-16T00:52:23.984Z,57.04
2023-05-16T00:53:23.996Z,57.11
2023-05-16T00:54:24.050Z,57.12
2023-05-16T00:55:24.042Z,57.07
2023-05-16T00:56:23.083Z,57.07
2023-05-16T00:57:23.133Z,57.09
2023-05-16T00:58:23.131Z,57.09
2023-05-16T00:59:23.168Z,57.09
2023-05-16T01:00:24.478Z,57.06
2023-05-16T01:01:23.275Z,57.08
2023-05-16T01:02:24.344Z,57.10
2023-05-16T01:03:23.450Z,57.13
2023-05-16T01:04:24.321Z,57.06
2023-05-16T01:05:24.493Z,57.09
2023-05-16T01:06:23.389Z,57.06
2023-05-16T01:07:24.410Z,57.06
2023-05-16T01:08:23.480Z,57.04
2023-05-16T01:09:24.493Z,57.09
2023-05-16T01:10:24.552Z,57.07
2023-05-16T01:11:23.572Z,57.04
2023-05-16T01:12:24.611Z,57.08
2023-05-16T01:13:24.618Z,57.06
2023-05-16T01:14:24.660Z,57.07
2023-05-16T01:15:24.822Z,57.07
2023-05-16T01:16:24.824Z,57.08
2023-05-16T01:17:24.891Z,57.06
2023-05-16T01:18:24.866Z,57.07
2023-05-16T01:19:24.960Z,57.03
2023-05-16T01:20:23.887Z,57.03
2023-05-16T01:21:23.909Z,57.03
2023-05-16T01:22:23.921Z,57.04
2023-05-16T01:23:24.948Z,57.04
2023-05-16T01:24:24.013Z,57.04
2023-05-16T01:25:25.347Z,57.04
2023-05-16T01:26:25.096Z,57.03
2023-05-16T01:27:24.097Z,57.05
2023-05-16T01:28:25.141Z,57.03
2023-05-16T01:29:24.175Z,57.03
2023-05-16T01:30:25.249Z,57.02
2023-05-16T01:31:25.345Z,57.05
2023-05-16T01:32:24.289Z,57.06
2023-05-16T01:33:24.320Z,57.02
2023-05-16T01:34:25.365Z,57.04
2023-05-16T01:35:25.744Z,57.02
2023-05-16T01:36:25.437Z,57.01
2023-05-16T01:37:24.482Z,57.02
2023-05-16T01:38:25.510Z,57.02
2023-05-16T01:39:25.555Z,57.02
2023-05-16T01:40:25.590Z,57.02
2023-05-16T01:41:24.610Z,57.02
2023-05-16T01:42:24.642Z,57.05
2023-05-16T01:43:24.634Z,57.01
2023-05-16T01:44:25.629Z,56.98
2023-05-16T01:45:24.813Z,57.01
2023-05-16T01:46:25.719Z,57.01
2023-05-16T01:47:25.756Z,57.01
2023-05-16T01:48:25.778Z,57.00
2023-05-16T01:49:25.839Z,57.00
2023-05-16T01:50:24.869Z,57.02
2023-05-16T01:51:24.911Z,57.00
2023-05-16T01:52:25.938Z,57.03
2023-05-16T01:53:24.970Z,57.02
2023-05-16T01:54:24.985Z,56.97
2023-05-16T01:55:25.174Z,56.96
2023-05-16T01:56:25.021Z,56.98
2023-05-16T01:57:24.997Z,56.97
2023-05-16T01:58:25.050Z,56.97
2023-05-16T01:59:26.076Z,57.00
2023-05-16T02:00:26.094Z,57.02
2023-05-16T02:01:26.169Z,57.04
2023-05-16T02:02:26.180Z,57.00
2023-05-16T02:03:26.213Z,56.96
2023-05-16T02:04:26.160Z,56.99
2023-05-16T02:05:25.526Z,57.00
2023-05-16T02:06:25.214Z,56.98
2023-05-16T02:07:26.261Z,56.98
2023-05-16T02:08:26.340Z,56.99
2023-05-16T02:09:26.342Z,56.99
2023-05-16T02:10:26.363Z,56.99
2023-05-16T02:11:26.399Z,56.98
2023-05-16T02:12:25.437Z,56.98
2023-05-16T02:13:26.482Z,56.99
2023-05-16T02:14:26.520Z,56.95
2023-05-16T02:15:25.794Z,57.00
2023-05-16T02:16:26.661Z,56.99
2023-05-16T02:17:25.683Z,56.99
2023-05-16T02:18:25.667Z,56.95
2023-05-16T02:19:26.723Z,56.97
2023-05-16T02:20:25.749Z,56.93
2023-05-16T02:21:26.789Z,56.98
2023-05-16T02:22:26.337Z,56.96
2023-05-16T02:23:26.855Z,56.97
2023-05-16T02:24:26.894Z,56.96
2023-05-16T02:25:27.253Z,56.97
2023-05-16T02:26:26.973Z,56.95
2023-05-16T02:27:25.998Z,56.94
2023-05-16T02:28:27.020Z,56.95
2023-05-16T02:29:26.078Z,56.94
2023-05-16T02:30:27.118Z,56.94
2023-05-16T02:31:26.218Z,56.99
2023-05-16T02:32:26.278Z,56.97
2023-05-16T02:33:27.214Z,56.96
2023-05-16T02:34:27.243Z,56.97
2023-05-16T02:35:27.525Z,56.96
2023-05-16T02:36:26.342Z,56.96
2023-05-16T02:37:27.362Z,56.94
2023-05-16T02:38:26.414Z,56.93
2023-05-16T02:39:27.424Z,56.95
2023-05-16T02:40:26.482Z,56.94
2023-05-16T02:41:26.506Z,56.93
2023-05-16T02:42:27.557Z,56.97
2023-05-16T02:43:27.603Z,56.93
2023-05-16T02:44:26.611Z,56.93
2023-05-16T02:45:26.966Z,56.92
2023-05-16T02:46:27.905Z,56.93
2023-05-16T02:47:26.770Z,56.92
2023-05-16T02:48:27.780Z,56.92
2023-05-16T02:49:26.792Z,56.94
2023-05-16T02:50:26.833Z,56.95
2023-05-16T02:51:27.875Z,56.97
2023-05-16T02:52:27.897Z,56.90
2023-05-16T02:53:27.956Z,56.93
2023-05-16T02:54:26.965Z,56.90
2023-05-16T02:55:26.966Z,56.92
2023-05-16T02:56:27.968Z,56.90
2023-05-16T02:57:27.004Z,56.95
2023-05-16T02:58:27.026Z,56.92
2023-05-16T02:59:28.043Z,56.95
2023-05-16T03:00:28.084Z,56.94
2023-05-16T03:01:27.131Z,56.91
2023-05-16T03:02:27.229Z,56.90
2023-05-16T03:03:28.275Z,56.96
2023-05-16T03:04:28.225Z,56.95
2023-05-16T03:05:28.624Z,56.92
2023-05-16T03:06:27.337Z,56.91
2023-05-16T03:07:28.344Z,56.95
2023-05-16T03:08:27.383Z,56.93
2023-05-16T03:09:28.387Z,56.93
2023-05-16T03:10:27.427Z,56.93
2023-05-16T03:11:27.490Z,56.91
2023-05-16T03:12:28.524Z,56.93
2023-05-16T03:13:28.555Z,56.90
2023-05-16T03:14:27.602Z,56.91
2023-05-16T03:15:28.871Z,56.96
2023-05-16T03:16:27.691Z,56.91
2023-05-16T03:17:28.772Z,56.91
2023-05-16T03:18:28.809Z,56.91
2023-05-16T03:19:27.855Z,56.89
2023-05-16T03:20:27.846Z,56.91
2023-05-16T03:21:28.882Z,56.90
2023-05-16T03:22:27.946Z,56.90
2023-05-16T03:23:27.987Z,56.90
2023-05-16T03:24:29.072Z,56.90
2023-05-16T03:25:29.121Z,56.91
2023-05-16T03:26:29.039Z,56.91
2023-05-16T03:27:28.070Z,56.87
2023-05-16T03:28:28.086Z,56.91
2023-05-16T03:29:29.133Z,56.91
2023-05-16T03:30:29.185Z,56.89
2023-05-16T03:31:28.270Z,56.88
2023-05-16T03:32:29.294Z,56.91
2023-05-16T03:33:28.341Z,56.91
2023-05-16T03:34:28.358Z,56.90
2023-05-16T03:35:28.671Z,56.89
2023-05-16T03:36:29.522Z,56.89
2023-05-16T03:37:29.482Z,56.88
2023-05-16T03:38:29.514Z,56.86
2023-05-16T03:39:29.542Z,56.86
2023-05-16T03:40:29.585Z,56.90
2023-05-16T03:41:28.612Z,56.87
2023-05-16T03:42:28.671Z,56.87
2023-05-16T03:43:29.692Z,56.89
2023-05-16T03:44:28.716Z,56.86
2023-05-16T03:45:30.035Z,56.87
2023-05-16T03:46:29.881Z,56.85
2023-05-16T03:47:29.867Z,56.86
2023-05-16T03:48:29.858Z,56.86
2023-05-16T03:49:29.948Z,56.85
2023-05-16T03:50:29.950Z,56.89
2023-05-16T03:51:28.983Z,56.84
2023-05-16T03:52:30.039Z,56.85
2023-05-16T03:53:29.101Z,56.86
2023-05-16T03:54:30.128Z,56.87
2023-05-16T03:55:29.316Z,56.88
2023-05-16T03:56:29.205Z,56.85
2023-05-16T03:57:30.257Z,56.86
2023-05-16T03:58:29.290Z,56.87
2023-05-16T03:59:29.337Z,56.83
2023-05-16T04:00:30.399Z,56.85
2023-05-16T04:01:30.430Z,56.85
2023-05-16T04:02:30.685Z,56.83
2023-05-16T04:03:30.561Z,56.83
2023-05-16T04:04:30.525Z,56.81
2023-05-16T04:05:29.851Z,56.82
2023-05-16T04:06:29.549Z,56.85
2023-05-16T04:07:30.602Z,56.82
2023-05-16T04:08:30.633Z,56.82
2023-05-16T04:09:29.648Z,56.81
2023-05-16T04:10:30.698Z,56.82
2023-05-16T04:11:30.712Z,56.79
2023-05-16T04:12:30.754Z,56.79
2023-05-16T04:13:30.798Z,56.76
2023-05-16T04:14:30.795Z,56.80
2023-05-16T04:15:30.834Z,56.81
2023-05-16T04:16:29.916Z,56.80
2023-05-16T04:17:29.928Z,56.79
2023-05-16T04:18:29.961Z,56.79
2023-05-16T04:19:30.942Z,56.76
2023-05-16T04:20:32.787Z,56.78
2023-05-16T04:21:30.023Z,56.79
2023-05-16T04:22:29.980Z,56.79
2023-05-16T04:23:29.989Z,56.76
2023-05-16T04:24:29.961Z,56.77
2023-05-16T04:25:30.135Z,56.79
2023-05-16T04:26:29.964Z,56.78
2023-05-16T04:27:29.960Z,56.79
2023-05-16T04:28:30.945Z,56.77
2023-05-16T04:29:30.932Z,56.80
2023-05-16T04:30:29.930Z,56.80
2023-05-16T04:31:30.949Z,56.75
2023-05-16T04:32:30.950Z,56.76
2023-05-16T04:33:29.890Z,56.75
2023-05-16T04:34:30.894Z,56.76
2023-05-16T04:35:30.901Z,56.78
2023-05-16T04:36:30.889Z,56.75
2023-05-16T04:37:30.900Z,56.76
2023-05-16T04:38:29.860Z,56.76
2023-05-16T04:39:29.839Z,56.76
2023-05-16T04:40:30.839Z,56.76
2023-05-16T04:41:29.859Z,56.73
2023-05-16T04:42:29.861Z,56.75
2023-05-16T04:43:29.817Z,56.76
2023-05-16T04:44:30.824Z,56.72
2023-05-16T04:45:30.810Z,56.75
2023-05-16T04:46:30.862Z,56.74
2023-05-16T04:47:30.886Z,56.76
2023-05-16T04:48:29.802Z,56.74
2023-05-16T04:49:29.784Z,56.74
2023-05-16T04:50:30.781Z,56.76
2023-05-16T04:51:30.760Z,56.76
2023-05-16T04:52:30.748Z,56.73
2023-05-16T04:53:30.767Z,56.74
2023-05-16T04:54:30.771Z,56.73
2023-05-16T04:55:30.964Z,56.71
2023-05-16T04:56:29.716Z,56.75
2023-05-16T04:57:29.722Z,56.74
2023-05-16T04:58:30.703Z,56.72
2023-05-16T04:59:30.717Z,56.68
2023-05-16T05:00:30.720Z,56.77
2023-05-16T05:01:30.810Z,56.71
2023-05-16T05:02:30.843Z,56.72
2023-05-16T05:03:30.838Z,56.72
2023-05-16T05:04:29.941Z,56.72
2023-05-16T05:05:30.239Z,56.72
2023-05-16T05:06:30.993Z,56.71
2023-05-16T05:07:31.070Z,56.71
2023-05-16T05:08:31.072Z,56.70
2023-05-16T05:09:30.116Z,56.71
2023-05-16T05:10:31.136Z,56.71
2023-05-16T05:11:31.175Z,56.68
2023-05-16T05:12:30.213Z,56.69
2023-05-16T05:13:31.275Z,56.72
2023-05-16T05:14:31.311Z,56.68
2023-05-16T05:15:31.337Z,56.67
2023-05-16T05:16:31.384Z,56.67
2023-05-16T05:17:31.537Z,56.68
2023-05-16T05:18:31.568Z,56.70
2023-05-16T05:19:30.615Z,56.67
2023-05-16T05:20:30.586Z,56.65
2023-05-16T05:21:31.614Z,56.63
2023-05-16T05:22:31.663Z,56.64
2023-05-16T05:23:31.686Z,56.64
2023-05-16T05:24:30.753Z,56.64
2023-05-16T05:25:30.802Z,56.64
2023-05-16T05:26:30.831Z,56.66
2023-05-16T05:27:30.833Z,56.63
2023-05-16T05:28:31.856Z,56.67
2023-05-16T05:29:31.870Z,56.65
2023-05-16T05:30:30.908Z,56.63
2023-05-16T05:31:31.017Z,56.62
2023-05-16T05:32:32.072Z,56.64
2023-05-16T05:33:32.043Z,56.64
2023-05-16T05:34:32.087Z,56.64
2023-05-16T05:35:32.157Z,56.60
2023-05-16T05:36:32.186Z,56.62
2023-05-16T05:37:32.246Z,56.61
2023-05-16T05:38:31.300Z,56.64
2023-05-16T05:39:32.317Z,56.62
2023-05-16T05:40:32.366Z,56.60
2023-05-16T05:41:31.465Z,56.60
2023-05-16T05:42:32.494Z,56.59
2023-05-16T05:43:32.509Z,56.58
2023-05-16T05:44:32.534Z,56.58
2023-05-16T05:45:31.579Z,56.56
2023-05-16T05:46:31.701Z,56.57
2023-05-16T05:47:31.684Z,56.55
2023-05-16T05:48:31.689Z,56.56
2023-05-16T05:49:32.735Z,56.56
2023-05-16T05:50:31.802Z,56.55
2023-05-16T05:51:32.836Z,56.55
2023-05-16T05:52:31.912Z,56.55
2023-05-16T05:53:31.901Z,56.52
2023-05-16T05:54:31.976Z,56.52
2023-05-16T05:55:33.054Z,56.51
2023-05-16T05:56:33.088Z,56.51
2023-05-16T05:57:32.113Z,56.52
2023-05-16T05:58:33.108Z,56.52
2023-05-16T05:59:33.143Z,56.50
2023-05-16T06:00:33.208Z,56.51
2023-05-16T06:01:33.299Z,56.53
2023-05-16T06:02:33.521Z,56.48
2023-05-16T06:03:32.401Z,56.50
2023-05-16T06:04:32.387Z,56.50
2023-05-16T06:05:33.465Z,56.49
2023-05-16T06:06:33.469Z,56.50
2023-05-16T06:07:32.555Z,56.50
2023-05-16T06:08:33.539Z,56.43
2023-05-16T06:09:32.586Z,56.47
2023-05-16T06:10:32.618Z,56.48
2023-05-16T06:11:33.647Z,56.47
2023-05-16T06:12:32.685Z,56.46
2023-05-16T06:13:33.741Z,56.45
2023-05-16T06:14:32.751Z,56.47
2023-05-16T06:15:33.790Z,56.45
2023-05-16T06:16:33.832Z,56.45
2023-05-16T06:17:32.880Z,56.44
2023-05-16T06:18:33.901Z,56.46
2023-05-16T06:19:33.881Z,56.43
2023-05-16T06:20:32.890Z,56.42
2023-05-16T06:21:33.923Z,56.41
2023-05-16T06:22:33.981Z,56.43
2023-05-16T06:23:34.003Z,56.41
2023-05-16T06:24:34.078Z,56.42
2023-05-16T06:25:34.119Z,56.42
2023-05-16T06:26:34.157Z,56.42
2023-05-16T06:27:34.190Z,56.43
2023-05-16T06:28:34.225Z,56.41
2023-05-16T06:29:33.248Z,56.42
2023-05-16T06:30:33.276Z,56.41
2023-05-16T06:31:34.370Z,56.42
2023-05-16T06:32:34.379Z,56.43
2023-05-16T06:33:33.373Z,56.41
2023-05-16T06:34:33.418Z,56.41
2023-05-16T06:35:33.466Z,56.41
2023-05-16T06:36:33.525Z,56.39
2023-05-16T06:37:34.554Z,56.41
2023-05-16T06:38:34.606Z,56.35
2023-05-16T06:39:34.675Z,56.40
2023-05-16T06:40:34.705Z,56.40
2023-05-16T06:41:34.733Z,56.40
2023-05-16T06:42:34.812Z,56.40
2023-05-16T06:43:33.848Z,56.39
2023-05-16T06:44:33.874Z,56.40
2023-05-16T06:45:34.989Z,56.40
2023-05-16T06:46:34.962Z,56.42
2023-05-16T06:47:34.096Z,56.37
2023-05-16T06:48:35.039Z,56.38
2023-05-16T06:49:35.061Z,56.38
2023-05-16T06:50:35.124Z,56.40
2023-05-16T06:51:35.165Z,56.35
2023-05-16T06:52:35.451Z,56.36
2023-05-16T06:53:34.250Z,56.35
2023-05-16T06:54:35.296Z,56.41
2023-05-16T06:55:34.328Z,56.34
2023-05-16T06:56:35.373Z,56.35
2023-05-16T06:57:35.449Z,56.37
2023-05-16T06:58:34.472Z,56.35
2023-05-16T06:59:34.541Z,56.30
2023-05-16T07:00:34.516Z,56.35
2023-05-16T07:01:35.689Z,56.28
2023-05-16T07:02:34.613Z,56.25
2023-05-16T07:03:35.651Z,56.22
2023-05-16T07:04:35.620Z,56.23
2023-05-16T07:05:34.622Z,56.22
2023-05-16T07:06:34.605Z,56.22
2023-05-16T07:07:35.650Z,56.21
2023-05-16T07:08:35.685Z,56.24
2023-05-16T07:09:34.767Z,56.23
2023-05-16T07:10:35.798Z,56.21
2023-05-16T07:11:35.865Z,56.20
2023-05-16T07:12:35.952Z,56.19
2023-05-16T07:13:36.158Z,56.21
2023-05-16T07:14:36.030Z,56.23
2023-05-16T07:15:36.067Z,56.21
2023-05-16T07:16:36.277Z,56.15
2023-05-16T07:17:35.204Z,56.20
2023-05-16T07:18:35.257Z,56.18
2023-05-16T07:19:36.245Z,56.15
2023-05-16T07:20:36.304Z,56.10
2023-05-16T07:21:36.334Z,56.16
2023-05-16T07:22:36.468Z,56.15
2023-05-16T07:23:36.440Z,56.07
2023-05-16T07:24:36.523Z,56.06
2023-05-16T07:25:36.496Z,56.05
2023-05-16T07:26:36.530Z,56.05
2023-05-16T07:27:36.607Z,56.02
2023-05-16T07:28:35.751Z,56.01
2023-05-16T07:29:36.658Z,56.00
2023-05-16T07:30:36.657Z,55.96
2023-05-16T07:31:36.722Z,55.98
2023-05-16T07:32:35.744Z,55.98
2023-05-16T07:33:36.768Z,55.95
2023-05-16T07:34:36.690Z,55.95
2023-05-16T07:35:36.713Z,55.92
2023-05-16T07:36:36.955Z,55.95
2023-05-16T07:37:35.749Z,55.91
2023-05-16T07:38:36.737Z,55.87
2023-05-16T07:39:36.766Z,55.87
2023-05-16T07:40:35.904Z,55.89
2023-05-16T07:41:36.903Z,55.87
2023-05-16T07:42:35.854Z,55.86
2023-05-16T07:43:35.879Z,55.85
2023-05-16T07:44:36.910Z,55.83
2023-05-16T07:45:36.976Z,55.85
2023-05-16T07:46:37.097Z,55.84
2023-05-16T07:47:37.063Z,55.82
2023-05-16T07:48:37.477Z,56.15
2023-05-16T07:49:37.089Z,56.23
2023-05-16T07:50:36.075Z,56.19
2023-05-16T07:51:36.120Z,56.10
2023-05-16T07:52:37.080Z,56.09
2023-05-16T07:53:36.450Z,56.04
2023-05-16T07:54:36.108Z,55.96
2023-05-16T07:55:37.158Z,56.07
2023-05-16T07:56:37.275Z,55.94
2023-05-16T07:57:37.266Z,55.88
2023-05-16T07:58:38.224Z,55.84
2023-05-16T07:59:36.505Z,55.84
2023-05-16T08:00:36.417Z,56.12
2023-05-16T08:01:36.411Z,56.19
2023-05-16T08:02:37.509Z,56.32
2023-05-16T08:03:37.723Z,56.38
2023-05-16T08:04:36.407Z,56.38
2023-05-16T08:05:37.511Z,56.44
2023-05-16T08:06:37.422Z,56.46
2023-05-16T08:07:37.409Z,56.42
2023-05-16T08:08:37.477Z,56.34
2023-05-16T08:09:36.518Z,56.39
2023-05-16T08:10:36.555Z,56.28
2023-05-16T08:11:36.628Z,56.10
2023-05-16T08:12:36.655Z,56.08
2023-05-16T08:13:37.673Z,56.17
2023-05-16T08:14:37.719Z,56.16
2023-05-16T08:15:37.802Z,56.23
2023-05-16T08:16:36.959Z,56.33
2023-05-16T08:17:36.967Z,56.35
2023-05-16T08:18:38.003Z,56.39
2023-05-16T08:19:36.998Z,56.33
2023-05-16T08:20:38.015Z,56.37
2023-05-16T08:21:38.162Z,56.07
2023-05-16T08:22:37.094Z,56.21
2023-05-16T08:23:38.139Z,56.26
2023-05-16T08:24:38.189Z,56.17
2023-05-16T08:25:38.199Z,56.18
2023-05-16T08:26:37.255Z,56.29
2023-05-16T08:27:38.333Z,56.34
2023-05-16T08:28:38.377Z,56.39
2023-05-16T08:29:38.474Z,56.24
2023-05-16T08:30:41.088Z,56.42
2023-05-16T08:31:38.485Z,56.46
2023-05-16T08:32:38.435Z,56.39
2023-05-16T08:33:38.475Z,56.40
2023-05-16T08:34:38.425Z,56.35
2023-05-16T08:35:37.426Z,56.29
2023-05-16T08:36:37.409Z,56.30
2023-05-16T08:37:38.449Z,56.28
2023-05-16T08:38:38.440Z,56.29
2023-05-16T08:39:38.418Z,56.32
2023-05-16T08:40:38.390Z,56.34
2023-05-16T08:41:38.376Z,56.16
2023-05-16T08:42:37.359Z,56.11
2023-05-16T08:43:37.495Z,56.24
2023-05-16T08:44:37.328Z,56.24
2023-05-16T08:45:38.396Z,56.22
2023-05-16T08:46:38.480Z,56.27
2023-05-16T08:47:38.522Z,56.33
2023-05-16T08:48:38.448Z,56.36
2023-05-16T08:49:37.495Z,56.37
2023-05-16T08:50:37.561Z,56.44
2023-05-16T08:51:38.580Z,56.47
2023-05-16T08:52:38.686Z,56.53
2023-05-16T08:53:38.720Z,56.58
2023-05-16T08:54:38.714Z,56.60
2023-05-16T08:55:38.811Z,56.67
2023-05-16T08:56:38.831Z,56.73
2023-05-16T08:57:37.875Z,56.75
2023-05-16T08:58:38.024Z,56.78
2023-05-16T08:59:37.979Z,56.77
2023-05-16T09:00:38.037Z,56.72
2023-05-16T09:01:39.125Z,56.77
2023-05-16T09:02:39.159Z,56.72
2023-05-16T09:03:39.160Z,56.72
2023-05-16T09:04:38.149Z,56.72
2023-05-16T09:05:38.167Z,56.77
2023-05-16T09:06:39.137Z,56.77
2023-05-16T09:07:38.174Z,56.79
2023-05-16T09:08:38.158Z,56.78
2023-05-16T09:09:39.437Z,56.79
2023-05-16T09:10:39.140Z,56.80
2023-05-16T09:11:39.158Z,56.83
2023-05-16T09:12:39.154Z,56.84
2023-05-16T09:13:39.193Z,56.87
2023-05-16T09:14:39.180Z,56.88
2023-05-16T09:15:39.325Z,56.85
2023-05-16T09:16:39.316Z,56.89
2023-05-16T09:17:39.938Z,56.92
2023-05-16T09:18:39.337Z,56.88
2023-05-16T09:19:39.371Z,56.85
2023-05-16T09:20:38.254Z,56.86
2023-05-16T09:21:39.249Z,56.87
2023-05-16T09:22:39.259Z,56.85
2023-05-16T09:23:38.240Z,56.87
2023-05-16T09:24:39.226Z,56.80
2023-05-16T09:25:39.258Z,56.79
2023-05-16T09:26:38.201Z,56.78
2023-05-16T09:27:38.197Z,56.77
2023-05-16T09:28:38.204Z,56.76
2023-05-16T09:29:38.202Z,56.74
2023-05-16T09:30:39.174Z,56.71
2023-05-16T09:31:39.215Z,56.70
2023-05-16T09:32:38.222Z,56.72
2023-05-16T09:33:38.150Z,56.70
2023-05-16T09:34:39.153Z,56.69
2023-05-16T09:35:45.389Z,56.67
2023-05-16T09:36:40.169Z,56.69
2023-05-16T09:37:39.179Z,56.66
2023-05-16T09:38:39.117Z,56.71
2023-05-16T09:39:38.098Z,56.69
2023-05-16T09:40:39.101Z,56.69
2023-05-16T09:41:38.151Z,56.65
2023-05-16T09:42:38.105Z,56.69
2023-05-16T09:43:41.616Z,56.68
2023-05-16T09:44:38.091Z,56.72
2023-05-16T09:45:38.135Z,56.70
2023-05-16T09:46:39.099Z,56.68
2023-05-16T09:47:38.103Z,56.78
2023-05-16T09:48:39.513Z,57.14
2023-05-16T09:49:39.053Z,57.21
2023-05-16T09:50:39.043Z,57.15
2023-05-16T09:51:38.046Z,57.13
2023-05-16T09:52:39.051Z,57.13
2023-05-16T09:53:39.512Z,57.09
2023-05-16T09:54:39.011Z,57.11
2023-05-16T09:55:42.043Z,57.12
2023-05-16T09:56:39.001Z,57.16
2023-05-16T09:57:39.133Z,57.12
2023-05-16T09:58:38.997Z,57.17
2023-05-16T09:59:38.967Z,57.22
2023-05-16T10:00:38.994Z,57.20
2023-05-16T10:01:39.022Z,57.20
2023-05-16T10:02:39.013Z,57.26
2023-05-16T10:03:38.186Z,57.28
2023-05-16T10:04:38.941Z,57.27
2023-05-16T10:05:38.932Z,57.31
2023-05-16T10:06:37.953Z,57.35
2023-05-16T10:07:37.945Z,57.37
2023-05-16T10:08:38.925Z,57.42
2023-05-16T10:09:38.906Z,57.42
2023-05-16T10:10:38.890Z,57.45
2023-05-16T10:11:37.893Z,57.49
2023-05-16T10:12:38.930Z,57.54
2023-05-16T10:13:37.952Z,57.59
2023-05-16T10:14:37.893Z,57.63
2023-05-16T10:15:37.877Z,57.67
2023-05-16T10:16:38.908Z,57.63
2023-05-16T10:17:37.906Z,57.68
2023-05-16T10:18:38.947Z,57.70
2023-05-16T10:19:38.842Z,57.74
2023-05-16T10:20:37.862Z,57.76
2023-05-16T10:21:37.838Z,57.78
2023-05-16T10:22:38.821Z,57.80
2023-05-16T10:23:37.800Z,57.80
2023-05-16T10:24:38.787Z,57.84
2023-05-16T10:25:38.787Z,57.85
2023-05-16T10:26:38.835Z,57.87
2023-05-16T10:27:37.788Z,57.87
2023-05-16T10:28:37.775Z,57.94
2023-05-16T10:29:52.958Z,57.91
2023-05-16T10:30:38.760Z,57.96
2023-05-16T10:31:37.789Z,57.96
2023-05-16T10:32:40.029Z,57.96
2023-05-16T10:33:38.841Z,57.99
2023-05-16T10:34:37.727Z,57.97
2023-05-16T10:35:38.714Z,57.99
2023-05-16T10:36:38.724Z,58.05
2023-05-16T10:37:38.697Z,58.00
2023-05-16T10:38:38.708Z,58.06
2023-05-16T10:39:37.744Z,58.02
2023-05-16T10:40:37.678Z,58.06
2023-05-16T10:41:37.668Z,58.10
2023-05-16T10:42:38.687Z,58.08
2023-05-16T10:43:38.670Z,58.09
2023-05-16T10:44:38.706Z,58.07
2023-05-16T10:45:38.735Z,58.09
2023-05-16T10:46:37.767Z,58.10
2023-05-16T10:47:37.677Z,58.07
2023-05-16T10:48:37.632Z,58.09
2023-05-16T10:49:39.025Z,58.14
2023-05-16T10:50:38.620Z,58.06
2023-05-16T10:51:37.593Z,58.01
2023-05-16T10:52:38.577Z,58.18
2023-05-16T10:53:37.597Z,58.13
2023-05-16T10:54:37.580Z,57.99
2023-05-16T10:55:38.585Z,57.83
2023-05-16T10:56:38.610Z,57.80
2023-05-16T10:57:37.566Z,57.72
2023-05-16T10:58:38.586Z,57.60
2023-05-16T10:59:37.533Z,57.86
2023-05-16T11:00:38.531Z,57.97
2023-05-16T11:01:37.618Z,57.97
2023-05-16T11:02:37.606Z,57.93
2023-05-16T11:03:38.602Z,57.89
2023-05-16T11:04:37.536Z,57.85
2023-05-16T11:05:38.577Z,57.60
2023-05-16T11:06:38.625Z,57.76
2023-05-16T11:07:37.674Z,57.71
2023-05-16T11:08:38.670Z,57.77
2023-05-16T11:09:38.718Z,57.86
2023-05-16T11:10:38.758Z,57.78
2023-05-16T11:11:37.759Z,57.71
2023-05-16T11:12:38.826Z,57.68
2023-05-16T11:13:38.836Z,57.64
2023-05-16T11:14:38.877Z,57.72
2023-05-16T11:15:38.111Z,57.80
2023-05-16T11:16:37.980Z,57.92
2023-05-16T11:17:41.025Z,57.77
2023-05-16T11:18:39.073Z,57.68
2023-05-16T11:19:39.003Z,57.73
2023-05-16T11:20:37.983Z,57.69
2023-05-16T11:21:37.992Z,57.72
2023-05-16T11:22:38.968Z,57.90
2023-05-16T11:23:38.962Z,57.71
2023-05-16T11:24:39.020Z,57.78
2023-05-16T11:25:38.004Z,57.75
2023-05-16T11:26:37.939Z,57.76
2023-05-16T11:27:37.927Z,57.94
2023-05-16T11:28:37.926Z,57.76
2023-05-16T11:29:37.927Z,57.86
2023-05-16T11:30:38.912Z,57.91
2023-05-16T11:31:38.933Z,57.96
2023-05-16T11:32:38.952Z,58.08
2023-05-16T11:33:38.962Z,57.88
2023-05-16T11:34:38.895Z,57.97
2023-05-16T11:35:39.060Z,57.81
2023-05-16T11:36:38.887Z,58.15
2023-05-16T11:37:38.882Z,58.04
2023-05-16T11:38:37.863Z,58.04
2023-05-16T11:39:38.113Z,58.12
2023-05-16T11:40:38.855Z,58.18
2023-05-16T11:41:38.832Z,58.22
2023-05-16T11:42:38.846Z,58.24
2023-05-16T11:43:38.829Z,58.32
2023-05-16T11:44:37.847Z,58.38
2023-05-16T11:45:38.822Z,58.45
2023-05-16T11:46:38.825Z,58.46
2023-05-16T11:47:39.031Z,58.50
2023-05-16T11:48:37.810Z,58.55
2023-05-16T11:49:37.888Z,58.61
2023-05-16T11:50:38.789Z,58.62
2023-05-16T11:51:41.765Z,58.66
2023-05-16T11:52:37.764Z,58.69
2023-05-16T11:53:37.769Z,58.77
2023-05-16T11:54:37.769Z,58.79
2023-05-16T11:55:42.428Z,58.79
2023-05-16T11:56:38.751Z,58.85
2023-05-16T11:57:38.743Z,58.82
2023-05-16T11:58:37.734Z,58.84
2023-05-16T11:59:38.727Z,58.89
2023-05-16T12:00:38.717Z,58.88
2023-05-16T12:01:38.723Z,58.90
2023-05-16T12:02:38.795Z,58.92
2023-05-16T12:03:38.865Z,58.91
2023-05-16T12:04:38.881Z,58.91
2023-05-16T12:05:37.834Z,58.93
2023-05-16T12:06:37.682Z,58.95
2023-05-16T12:07:38.690Z,58.93
2023-05-16T12:08:37.675Z,58.96
2023-05-16T12:09:37.665Z,58.95
2023-05-16T12:10:38.672Z,58.94
2023-05-16T12:11:38.665Z,58.97
2023-05-16T12:12:38.637Z,58.99
2023-05-16T12:13:38.614Z,59.03
2023-05-16T12:14:37.623Z,59.03
2023-05-16T12:15:38.628Z,58.94
2023-05-16T12:16:37.702Z,59.01
2023-05-16T12:17:38.653Z,59.00
2023-05-16T12:18:40.544Z,58.99
2023-05-16T12:19:37.586Z,59.01
2023-05-16T12:20:37.578Z,59.09
2023-05-16T12:21:37.684Z,58.97
2023-05-16T12:22:38.574Z,59.04
2023-05-16T12:23:37.567Z,59.06
2023-05-16T12:24:37.542Z,59.05
2023-05-16T12:25:38.550Z,59.08
2023-05-16T12:26:37.530Z,59.02
2023-05-16T12:27:39.337Z,59.01
2023-05-16T12:28:37.524Z,59.00
2023-05-16T12:29:38.529Z,58.99
2023-05-16T12:30:38.501Z,59.03
2023-05-16T12:31:38.527Z,59.08
2023-05-16T12:32:38.666Z,58.98
2023-05-16T12:33:37.633Z,58.96
2023-05-16T12:34:37.476Z,58.98
2023-05-16T12:35:38.478Z,58.94
2023-05-16T12:36:37.464Z,58.97
2023-05-16T12:37:37.660Z,59.00
2023-05-16T12:38:37.455Z,58.97
2023-05-16T12:39:38.437Z,58.90
2023-05-16T12:40:37.429Z,58.97
2023-05-16T12:41:38.429Z,58.91
2023-05-16T12:42:38.428Z,59.00
2023-05-16T12:43:37.414Z,58.94
2023-05-16T12:44:37.405Z,58.93
2023-05-16T12:45:37.412Z,58.90
2023-05-16T12:46:37.440Z,58.87
2023-05-16T12:47:37.448Z,58.92
2023-05-16T12:48:38.381Z,58.87
2023-05-16T12:49:37.369Z,58.89
2023-05-16T12:50:38.355Z,58.86
2023-05-16T12:51:38.353Z,58.88
2023-05-16T12:52:38.384Z,58.88